Time;durP1;ratioP1;P1;durP2;ratioP2;P2;SDS_P1;SDS_P2;PMS_P1;PMS_P2;Temp;Humidity;BMP_temperature;BMP_pressure;BME280_temperature;BME280_humidity;BME280_pressure;Samples;Min_cycle;Max_cycle;Signal;HPM_P1;HPM_P2
2022/01/01 00:01:49;;;;;;;;;29.00;26.00;;;;;;;;5023115;28;45509;-77
2022/01/01 00:04:15;;;;;;;;;28.33;27.00;;;;;;;;5028347;28;48303;-77
2022/01/01 00:06:40;;;;;;;;;28.33;26.00;;;;;;;;5033848;28;45458;-79
2022/01/01 00:09:05;;;;;;;;;31.00;27.00;;;;;;;;5027435;28;45609;-79
2022/01/01 00:11:30;;;;;;;;;25.33;22.67;;;;;;;;5026929;28;45569;-79
2022/01/01 00:13:56;;;;;;;;;29.33;24.00;;;;;;;;5025884;28;45574;-78
2022/01/01 00:16:21;;;;;;;;;27.75;24.50;;;;;;;;5029723;28;46675;-77
2022/01/01 00:18:46;;;;;;;;;26.33;22.00;;;;;;;;5027033;28;45993;-76
2022/01/01 00:21:11;;;;;;;;;25.33;24.33;;;;;;;;5030953;28;45560;-77
2022/01/01 00:23:37;;;;;;;;;28.67;27.00;;;;;;;;5024858;28;45790;-79
2022/01/01 00:26:02;;;;;;;;;23.00;22.33;;;;;;;;5025527;28;46279;-77
2022/01/01 00:28:27;;;;;;;;;30.00;23.33;;;;;;;;5024649;28;45550;-78
2022/01/01 00:30:52;;;;;;;;;28.67;25.67;;;;;;;;5028080;28;45426;-79
2022/01/01 00:33:18;;;;;;;;;30.75;26.50;;;;;;;;5031242;28;45533;-78
2022/01/01 00:35:43;;;;;;;;;25.75;21.00;;;;;;;;5028653;28;45491;-78
2022/01/01 00:38:08;;;;;;;;;28.67;22.67;;;;;;;;5026346;28;45572;-78
2022/01/01 00:40:34;;;;;;;;;29.00;26.50;;;;;;;;5030856;28;45432;-78
2022/01/01 00:43:02;;;;;;;;;29.00;25.33;;;;;;;;5027978;28;48049;-78
2022/01/01 00:45:27;;;;;;;;;29.00;26.50;;;;;;;;5026272;28;45382;-78
2022/01/01 00:47:53;;;;;;;;;26.00;26.00;;;;;;;;5030095;28;45408;-78
2022/01/01 00:50:18;;;;;;;;;31.75;26.00;;;;;;;;5026411;28;45546;-78
2022/01/01 00:52:44;;;;;;;;;28.00;26.33;;;;;;;;5024757;28;45537;-78
2022/01/01 00:55:10;;;;;;;;;25.75;22.75;;;;;;;;5021168;28;46128;-79
2022/01/01 00:57:35;;;;;;;;;28.25;27.75;;;;;;;;5022005;28;45746;-78
2022/01/01 01:00:01;;;;;;;;;29.33;26.33;;;;;;;;5028443;28;45408;-79
2022/01/01 01:02:26;;;;;;;;;32.75;29.25;;;;;;;;5020663;28;45620;-78
2022/01/01 01:04:52;;;;;;;;;32.67;28.00;;;;;;;;5027137;28;48601;-78
2022/01/01 01:07:17;;;;;;;;;29.33;25.67;;;;;;;;5029068;28;45602;-79
2022/01/01 01:09:42;;;;;;;;;28.33;24.33;;;;;;;;5014350;28;45419;-79
2022/01/01 01:12:07;;;;;;;;;28.33;24.33;;;;;;;;5024541;28;45428;-78
2022/01/01 01:14:40;;;;;;;;;28.75;25.50;;;;;;;;5026850;28;45489;-79
2022/01/01 01:17:05;;;;;;;;;35.75;27.25;;;;;;;;5021885;28;45967;-78
2022/01/01 01:19:31;;;;;;;;;28.00;25.25;;;;;;;;5023468;28;45371;-78
2022/01/01 01:21:57;;;;;;;;;24.25;21.75;;;;;;;;5020169;28;45714;-79
2022/01/01 01:24:24;;;;;;;;;29.00;24.75;;;;;;;;5027257;28;45529;-78
2022/01/01 01:26:50;;;;;;;;;24.00;23.00;;;;;;;;5026351;28;45438;-78
2022/01/01 01:29:16;;;;;;;;;23.50;23.50;;;;;;;;5032718;28;45538;-79
2022/01/01 01:31:41;;;;;;;;;30.25;26.25;;;;;;;;5027880;28;45447;-77
2022/01/01 01:34:07;;;;;;;;;28.67;23.33;;;;;;;;5045050;28;48384;-78
2022/01/01 01:36:32;;;;;;;;;25.67;22.67;;;;;;;;5030935;28;45625;-78
2022/01/01 01:38:57;;;;;;;;;21.33;21.00;;;;;;;;5027851;28;45486;-79
2022/01/01 01:41:23;;;;;;;;;25.67;21.67;;;;;;;;5023224;28;45464;-78
2022/01/01 01:43:51;;;;;;;;;23.75;19.50;;;;;;;;5027589;28;46446;-78
2022/01/01 01:46:17;;;;;;;;;27.50;22.50;;;;;;;;5029426;28;45620;-78
2022/01/01 01:48:44;;;;;;;;;23.33;22.67;;;;;;;;5029858;28;45380;-78
2022/01/01 01:51:10;;;;;;;;;23.75;23.25;;;;;;;;5023720;28;45517;-78
2022/01/01 01:53:35;;;;;;;;;28.00;23.50;;;;;;;;5024608;28;46121;-78
2022/01/01 01:56:00;;;;;;;;;23.67;21.33;;;;;;;;5025977;28;45501;-78
2022/01/01 01:58:28;;;;;;;;;23.75;20.75;;;;;;;;5030470;28;45489;-78
2022/01/01 02:03:34;;;;;;;;;28.00;21.25;;;;;;;;5028025;28;46083;-78
2022/01/01 02:05:59;;;;;;;;;22.67;22.67;;;;;;;;5019409;28;45533;-78
2022/01/01 02:08:25;;;;;;;;;25.50;23.00;;;;;;;;5026727;28;45653;-78
2022/01/01 02:10:52;;;;;;;;;29.25;24.50;;;;;;;;5029617;28;45522;-78
2022/01/01 02:13:25;;;;;;;;;25.25;23.25;;;;;;;;5028071;28;47590;-78
2022/01/01 02:18:15;;;;;;;;;28.00;21.50;;;;;;;;5029969;28;45382;-78
2022/01/01 02:20:41;;;;;;;;;23.67;19.00;;;;;;;;5020144;28;45701;-78
2022/01/01 02:23:10;;;;;;;;;23.00;22.75;;;;;;;;5022841;28;46017;-78
2022/01/01 02:25:36;;;;;;;;;28.50;26.00;;;;;;;;5022513;28;45446;-78
2022/01/01 02:28:01;;;;;;;;;25.00;22.00;;;;;;;;5027131;28;45445;-78
2022/01/01 02:30:28;;;;;;;;;26.67;23.33;;;;;;;;5025296;28;45809;-78
2022/01/01 02:32:53;;;;;;;;;23.25;19.50;;;;;;;;5025107;28;45470;-79
2022/01/01 02:35:18;;;;;;;;;23.00;20.67;;;;;;;;5028517;28;45475;-79
2022/01/01 02:37:45;;;;;;;;;23.75;22.50;;;;;;;;5025282;28;45557;-77
2022/01/01 02:40:10;;;;;;;;;23.67;21.00;;;;;;;;5024305;28;45540;-78
2022/01/01 02:42:37;;;;;;;;;22.00;20.00;;;;;;;;5031857;28;46332;-78
2022/01/01 02:45:07;;;;;;;;;27.25;24.75;;;;;;;;5031061;28;45825;-78
2022/01/01 02:47:32;;;;;;;;;25.25;21.00;;;;;;;;5028384;28;45565;-78
2022/01/01 02:49:57;;;;;;;;;21.33;18.00;;;;;;;;5029235;28;45420;-78
2022/01/01 02:52:23;;;;;;;;;24.00;21.67;;;;;;;;5023698;28;45486;-78
2022/01/01 02:54:48;;;;;;;;;23.33;22.00;;;;;;;;5029027;28;45680;-78
2022/01/01 02:57:13;;;;;;;;;23.67;22.33;;;;;;;;5027620;28;45504;-79
2022/01/01 02:59:38;;;;;;;;;23.00;20.00;;;;;;;;5028946;28;45506;-78
2022/01/01 03:02:03;;;;;;;;;28.33;26.67;;;;;;;;5029942;28;45644;-78
2022/01/01 03:04:29;;;;;;;;;23.00;20.67;;;;;;;;5027457;28;45529;-78
2022/01/01 03:06:55;;;;;;;;;25.33;23.33;;;;;;;;5031242;28;45435;-78
2022/01/01 03:09:23;;;;;;;;;20.50;20.50;;;;;;;;5029418;28;45499;-78
2022/01/01 03:11:48;;;;;;;;;21.75;21.25;;;;;;;;5030147;28;45708;-78
2022/01/01 03:14:17;;;;;;;;;22.00;22.00;;;;;;;;5023250;28;45431;-78
2022/01/01 03:16:42;;;;;;;;;29.00;21.00;;;;;;;;5026190;28;45652;-78
2022/01/01 03:19:08;;;;;;;;;23.50;20.00;;;;;;;;5028750;28;45540;-78
2022/01/01 03:21:33;;;;;;;;;22.67;20.00;;;;;;;;5028988;28;46105;-78
2022/01/01 03:23:58;;;;;;;;;30.67;22.33;;;;;;;;5020585;28;45380;-78
2022/01/01 03:26:23;;;;;;;;;24.67;20.00;;;;;;;;5026884;28;45442;-78
2022/01/01 03:28:48;;;;;;;;;25.33;20.67;;;;;;;;5030428;28;45537;-78
2022/01/01 03:31:14;;;;;;;;;25.67;21.33;;;;;;;;5027544;28;48107;-78
2022/01/01 03:33:39;;;;;;;;;27.00;25.00;;;;;;;;5029860;28;45659;-78
2022/01/01 03:36:04;;;;;;;;;27.50;24.75;;;;;;;;5031255;28;45487;-78
2022/01/01 03:38:30;;;;;;;;;24.75;24.75;;;;;;;;5028651;28;45407;-78
2022/01/01 03:40:55;;;;;;;;;26.25;24.50;;;;;;;;5027494;28;45461;-78
2022/01/01 03:43:20;;;;;;;;;31.50;24.75;;;;;;;;5028846;28;45451;-78
2022/01/01 03:45:46;;;;;;;;;27.00;23.67;;;;;;;;5018728;28;45495;-77
2022/01/01 03:48:11;;;;;;;;;26.00;24.00;;;;;;;;5031396;28;45601;-78
2022/01/01 03:50:36;;;;;;;;;27.33;23.67;;;;;;;;5019377;28;46171;-78
2022/01/01 03:53:01;;;;;;;;;29.67;24.00;;;;;;;;5020042;28;45364;-77
2022/01/01 03:55:27;;;;;;;;;26.25;25.50;;;;;;;;5017812;28;45517;-78
2022/01/01 03:57:52;;;;;;;;;30.25;27.25;;;;;;;;5029111;28;45605;-78
2022/01/01 04:00:17;;;;;;;;;29.00;27.33;;;;;;;;5032831;28;45390;-77
2022/01/01 04:02:42;;;;;;;;;34.50;25.75;;;;;;;;5027091;28;45456;-79
2022/01/01 04:05:08;;;;;;;;;30.00;24.67;;;;;;;;5022858;28;45271;-78
2022/01/01 04:07:33;;;;;;;;;36.25;30.25;;;;;;;;5020956;28;45402;-79
2022/01/01 04:09:59;;;;;;;;;27.75;24.50;;;;;;;;5024149;28;45477;-79
2022/01/01 04:12:25;;;;;;;;;32.50;28.25;;;;;;;;5028380;28;45422;-79
2022/01/01 04:14:50;;;;;;;;;32.25;29.25;;;;;;;;5029853;28;45639;-77
2022/01/01 04:17:15;;;;;;;;;35.25;26.50;;;;;;;;5025483;28;45635;-78
2022/01/01 04:19:41;;;;;;;;;36.50;28.00;;;;;;;;5026329;28;46126;-78
2022/01/01 04:22:07;;;;;;;;;31.33;24.00;;;;;;;;5028299;28;45575;-78
2022/01/01 04:24:32;;;;;;;;;27.75;26.75;;;;;;;;5039575;28;45835;-78
2022/01/01 04:26:57;;;;;;;;;27.67;24.67;;;;;;;;5023073;28;45579;-78
2022/01/01 04:29:23;;;;;;;;;27.00;25.50;;;;;;;;5026244;28;45986;-78
2022/01/01 04:31:49;;;;;;;;;28.50;25.50;;;;;;;;5028354;28;45581;-78
2022/01/01 04:34:14;;;;;;;;;27.00;21.67;;;;;;;;5028131;28;45440;-78
2022/01/01 04:36:47;;;;;;;;;25.67;23.00;;;;;;;;5015639;28;45538;-79
2022/01/01 04:39:13;;;;;;;;;23.50;22.00;;;;;;;;5019508;28;46225;-79
2022/01/01 04:41:38;;;;;;;;;23.67;20.67;;;;;;;;5036218;28;45978;-79
2022/01/01 04:44:03;;;;;;;;;22.67;19.67;;;;;;;;5033038;28;45457;-78
2022/01/01 04:46:29;;;;;;;;;26.00;23.00;;;;;;;;5026640;28;45529;-78
2022/01/01 04:48:54;;;;;;;;;20.67;19.67;;;;;;;;5028881;28;45493;-78
2022/01/01 04:51:19;;;;;;;;;25.00;20.33;;;;;;;;5023049;28;45589;-78
2022/01/01 04:53:45;;;;;;;;;23.00;21.67;;;;;;;;5025638;28;45554;-78
2022/01/01 04:56:10;;;;;;;;;22.00;20.00;;;;;;;;5027575;28;45646;-78
2022/01/01 04:58:35;;;;;;;;;18.25;14.50;;;;;;;;5028404;28;45565;-78
2022/01/01 05:01:01;;;;;;;;;19.33;18.33;;;;;;;;5021668;28;45394;-78
2022/01/01 05:03:26;;;;;;;;;20.50;17.25;;;;;;;;5029506;28;45437;-78
2022/01/01 05:05:52;;;;;;;;;16.67;15.00;;;;;;;;5023032;28;45376;-78
2022/01/01 05:08:17;;;;;;;;;17.75;16.75;;;;;;;;5026337;28;47279;-78
2022/01/01 05:10:42;;;;;;;;;16.00;13.33;;;;;;;;5024246;28;45451;-78
2022/01/01 05:13:07;;;;;;;;;17.33;16.00;;;;;;;;5022128;28;45696;-78
2022/01/01 05:15:32;;;;;;;;;17.33;15.00;;;;;;;;5027053;28;45431;-78
2022/01/01 05:17:58;;;;;;;;;15.33;14.00;;;;;;;;5030257;28;48035;-78
2022/01/01 05:20:23;;;;;;;;;16.33;15.33;;;;;;;;5020282;28;45771;-78
2022/01/01 05:22:48;;;;;;;;;14.67;13.67;;;;;;;;5025354;28;45392;-78
2022/01/01 05:25:13;;;;;;;;;16.33;14.00;;;;;;;;5026901;28;45828;-78
2022/01/01 05:27:40;;;;;;;;;14.67;13.00;;;;;;;;5028417;28;48313;-78
2022/01/01 05:30:07;;;;;;;;;16.00;14.00;;;;;;;;5028526;28;45878;-78
2022/01/01 05:32:32;;;;;;;;;10.25;10.25;;;;;;;;5025955;28;45597;-78
2022/01/01 05:34:57;;;;;;;;;16.25;12.25;;;;;;;;5023017;28;45421;-78
2022/01/01 05:37:22;;;;;;;;;14.00;13.33;;;;;;;;5026291;28;45877;-78
2022/01/01 05:39:48;;;;;;;;;14.33;12.67;;;;;;;;5027941;28;45525;-79
2022/01/01 05:42:13;;;;;;;;;14.00;12.67;;;;;;;;5025631;28;45657;-79
2022/01/01 05:44:38;;;;;;;;;13.33;12.00;;;;;;;;5024007;28;45450;-78
2022/01/01 05:47:04;;;;;;;;;12.33;12.00;;;;;;;;5021838;28;45400;-78
2022/01/01 05:49:29;;;;;;;;;13.25;12.00;;;;;;;;5021763;28;45547;-78
2022/01/01 05:51:54;;;;;;;;;10.33;10.33;;;;;;;;5028432;28;45494;-78
2022/01/01 05:54:19;;;;;;;;;16.00;12.67;;;;;;;;5022609;28;45410;-78
2022/01/01 05:56:45;;;;;;;;;11.00;10.25;;;;;;;;5019502;28;46110;-78
2022/01/01 05:59:10;;;;;;;;;13.00;11.67;;;;;;;;5027102;28;45624;-78
2022/01/01 06:01:35;;;;;;;;;11.00;11.00;;;;;;;;5019164;28;45581;-78
2022/01/01 06:04:00;;;;;;;;;13.00;11.67;;;;;;;;5023151;28;45956;-78
2022/01/01 06:06:26;;;;;;;;;16.67;12.00;;;;;;;;5027402;28;46035;-78
2022/01/01 06:08:51;;;;;;;;;11.67;9.33;;;;;;;;5024649;28;45776;-78
2022/01/01 06:11:16;;;;;;;;;10.33;10.33;;;;;;;;5022715;28;45639;-78
2022/01/01 06:13:41;;;;;;;;;10.33;10.33;;;;;;;;5023445;28;45733;-78
2022/01/01 06:16:06;;;;;;;;;12.00;11.33;;;;;;;;5030479;28;45693;-78
2022/01/01 06:18:32;;;;;;;;;15.33;11.33;;;;;;;;5020886;28;45438;-78
2022/01/01 06:20:57;;;;;;;;;10.67;8.67;;;;;;;;5023685;28;45515;-78
2022/01/01 06:23:23;;;;;;;;;12.75;11.00;;;;;;;;5022943;28;45629;-78
2022/01/01 06:25:48;;;;;;;;;16.50;12.00;;;;;;;;5025369;28;46099;-78
2022/01/01 06:28:14;;;;;;;;;10.00;10.00;;;;;;;;5028267;28;45585;-78
2022/01/01 06:30:39;;;;;;;;;10.25;9.50;;;;;;;;5032281;28;45565;-78
2022/01/01 06:33:14;;;;;;;;;10.33;9.67;;;;;;;;5025385;28;45563;-78
2022/01/01 06:35:40;;;;;;;;;12.25;10.00;;;;;;;;5027653;28;45779;-78
2022/01/01 06:38:05;;;;;;;;;11.50;10.50;;;;;;;;5020052;28;45483;-79
2022/01/01 06:40:30;;;;;;;;;11.67;11.00;;;;;;;;5028435;28;45447;-78
2022/01/01 06:42:56;;;;;;;;;12.33;10.67;;;;;;;;5018898;28;45670;-79
2022/01/01 06:45:21;;;;;;;;;11.33;10.33;;;;;;;;5033476;28;45641;-78
2022/01/01 06:47:46;;;;;;;;;14.00;11.50;;;;;;;;5025666;28;45660;-78
2022/01/01 06:50:11;;;;;;;;;12.67;11.67;;;;;;;;5022883;28;45505;-78
2022/01/01 06:52:40;;;;;;;;;13.00;13.00;;;;;;;;5027865;28;48988;-78
2022/01/01 06:55:06;;;;;;;;;12.50;12.50;;;;;;;;5026807;28;46421;-78
2022/01/01 06:57:31;;;;;;;;;13.00;12.25;;;;;;;;5027039;28;46946;-78
2022/01/01 06:59:56;;;;;;;;;13.00;11.00;;;;;;;;5031802;28;45645;-79
2022/01/01 07:02:21;;;;;;;;;16.67;14.33;;;;;;;;5025881;28;45416;-78
2022/01/01 07:04:46;;;;;;;;;12.33;11.00;;;;;;;;5021842;28;46573;-78
2022/01/01 07:07:13;;;;;;;;;14.67;14.00;;;;;;;;5028328;28;45376;-78
2022/01/01 07:09:38;;;;;;;;;15.00;14.25;;;;;;;;5026038;28;45742;-78
2022/01/01 07:12:03;;;;;;;;;13.67;13.67;;;;;;;;5030708;28;45499;-78
2022/01/01 07:14:29;;;;;;;;;12.75;11.00;;;;;;;;5026907;28;47446;-78
2022/01/01 07:16:54;;;;;;;;;16.67;15.33;;;;;;;;5024350;28;45352;-78
2022/01/01 07:19:19;;;;;;;;;20.50;15.25;;;;;;;;5027559;28;45641;-78
2022/01/01 07:21:44;;;;;;;;;15.00;13.67;;;;;;;;5029782;28;45592;-78
2022/01/01 07:24:10;;;;;;;;;14.67;13.00;;;;;;;;5026754;28;46496;-78
2022/01/01 07:26:35;;;;;;;;;15.00;14.00;;;;;;;;5030677;28;46276;-78
2022/01/01 07:29:00;;;;;;;;;15.00;14.00;;;;;;;;5028708;28;45695;-78
2022/01/01 07:31:25;;;;;;;;;15.33;13.00;;;;;;;;5028914;28;45411;-78
2022/01/01 07:33:50;;;;;;;;;13.67;13.00;;;;;;;;5018907;28;45366;-78
2022/01/01 07:36:19;;;;;;;;;13.33;13.33;;;;;;;;5033213;28;45456;-78
2022/01/01 07:38:44;;;;;;;;;16.50;14.00;;;;;;;;5028741;28;45583;-78
2022/01/01 07:41:09;;;;;;;;;15.00;15.00;;;;;;;;5027889;28;45604;-78
2022/01/01 07:43:35;;;;;;;;;18.00;16.33;;;;;;;;5029064;28;45489;-78
2022/01/01 07:46:00;;;;;;;;;23.00;15.67;;;;;;;;5028395;28;46277;-79
2022/01/01 07:48:25;;;;;;;;;23.00;16.00;;;;;;;;5031176;28;45442;-79
2022/01/01 07:50:50;;;;;;;;;17.67;16.67;;;;;;;;5032444;28;45529;-78
2022/01/01 07:53:15;;;;;;;;;17.00;16.67;;;;;;;;5030448;28;45591;-78
2022/01/01 07:55:41;;;;;;;;;15.67;13.67;;;;;;;;5026500;28;45462;-78
2022/01/01 07:58:07;;;;;;;;;17.67;15.00;;;;;;;;5024047;28;45481;-77
2022/01/01 08:00:33;;;;;;;;;17.00;13.75;;;;;;;;5023354;28;45431;-77
2022/01/01 08:02:58;;;;;;;;;15.25;11.00;;;;;;;;5028419;28;45960;-78
2022/01/01 08:05:23;;;;;;;;;12.00;11.00;;;;;;;;5022435;28;45542;-78
2022/01/01 08:07:48;;;;;;;;;15.33;13.00;;;;;;;;5021329;28;45542;-78
2022/01/01 08:10:14;;;;;;;;;10.00;10.00;;;;;;;;5022776;28;45696;-78
2022/01/01 08:12:41;;;;;;;;;9.75;8.75;;;;;;;;5030904;28;45687;-78
2022/01/01 08:15:07;;;;;;;;;11.25;9.00;;;;;;;;5027780;28;45866;-78
2022/01/01 08:17:32;;;;;;;;;8.75;8.75;;;;;;;;5024344;28;45616;-78
2022/01/01 08:19:57;;;;;;;;;12.75;11.25;;;;;;;;5028196;28;45451;-78
2022/01/01 08:22:23;;;;;;;;;11.25;9.50;;;;;;;;5027750;28;46041;-78
2022/01/01 08:24:48;;;;;;;;;11.50;10.00;;;;;;;;5033735;28;45600;-78
2022/01/01 08:27:14;;;;;;;;;15.00;11.00;;;;;;;;5032671;28;45630;-78
2022/01/01 08:29:39;;;;;;;;;14.75;14.00;;;;;;;;5023753;28;45682;-78
2022/01/01 08:32:07;;;;;;;;;14.33;13.00;;;;;;;;5032043;28;46264;-78
2022/01/01 08:34:33;;;;;;;;;14.50;10.50;;;;;;;;5029456;28;46836;-79
2022/01/01 08:36:58;;;;;;;;;11.75;11.75;;;;;;;;5038659;28;45664;-78
2022/01/01 08:39:23;;;;;;;;;11.67;10.33;;;;;;;;5041311;28;45518;-78
2022/01/01 08:41:48;;;;;;;;;11.67;11.67;;;;;;;;5038733;28;46950;-78
2022/01/01 08:44:14;;;;;;;;;12.33;12.33;;;;;;;;5040034;28;45904;-78
2022/01/01 08:46:39;;;;;;;;;14.25;11.50;;;;;;;;5038970;28;51003;-78
2022/01/01 08:49:05;;;;;;;;;10.00;9.00;;;;;;;;5033467;28;45770;-78
2022/01/01 08:51:32;;;;;;;;;12.25;12.00;;;;;;;;5037976;28;48229;-78
2022/01/01 08:53:57;;;;;;;;;13.25;11.00;;;;;;;;5029985;28;45656;-78
2022/01/01 08:56:23;;;;;;;;;11.00;11.00;;;;;;;;5026506;28;45565;-78
2022/01/01 08:58:48;;;;;;;;;10.67;9.00;;;;;;;;5024201;28;45598;-78
2022/01/01 09:01:13;;;;;;;;;10.00;9.67;;;;;;;;5024988;28;45552;-80
2022/01/01 09:03:39;;;;;;;;;9.75;8.00;;;;;;;;5026712;28;45578;-78
2022/01/01 09:06:05;;;;;;;;;8.33;8.33;;;;;;;;5022311;28;45450;-78
2022/01/01 09:08:31;;;;;;;;;9.50;7.50;;;;;;;;5027513;28;45464;-78
2022/01/01 09:10:57;;;;;;;;;11.00;9.00;;;;;;;;5023498;28;47137;-78
2022/01/01 09:13:22;;;;;;;;;9.50;7.75;;;;;;;;5020515;28;45534;-78
2022/01/01 09:15:48;;;;;;;;;7.33;7.33;;;;;;;;5028996;28;45383;-78
2022/01/01 09:18:13;;;;;;;;;8.75;8.00;;;;;;;;5027062;28;45633;-78
2022/01/01 09:20:38;;;;;;;;;8.25;7.25;;;;;;;;5019104;28;45782;-79
2022/01/01 09:23:04;;;;;;;;;10.00;8.00;;;;;;;;5023177;28;45579;-79
2022/01/01 09:25:29;;;;;;;;;6.67;5.33;;;;;;;;5025560;28;45614;-79
2022/01/01 09:27:54;;;;;;;;;8.00;7.00;;;;;;;;5027962;28;45477;-78
2022/01/01 09:30:20;;;;;;;;;10.67;7.00;;;;;;;;5019097;28;47110;-78
2022/01/01 09:32:45;;;;;;;;;7.75;6.00;;;;;;;;5024713;28;45711;-78
2022/01/01 09:35:11;;;;;;;;;9.33;7.67;;;;;;;;5025587;28;45493;-78
2022/01/01 09:37:36;;;;;;;;;7.00;6.00;;;;;;;;5028395;28;45458;-78
2022/01/01 09:40:02;;;;;;;;;6.67;6.00;;;;;;;;5042715;28;45479;-79
2022/01/01 09:42:28;;;;;;;;;5.75;5.75;;;;;;;;5018550;28;45919;-78
2022/01/01 09:44:54;;;;;;;;;7.50;4.75;;;;;;;;5035040;28;45524;-79
2022/01/01 09:47:19;;;;;;;;;9.75;8.25;;;;;;;;5022345;28;45689;-78
2022/01/01 09:49:44;;;;;;;;;6.33;5.67;;;;;;;;5027159;28;47292;-79
2022/01/01 09:52:12;;;;;;;;;8.33;7.33;;;;;;;;5016661;28;45555;-78
2022/01/01 09:54:37;;;;;;;;;6.75;6.75;;;;;;;;5016240;28;45762;-78
2022/01/01 09:57:03;;;;;;;;;5.00;5.00;;;;;;;;5021936;28;45435;-78
2022/01/01 09:59:28;;;;;;;;;7.75;7.75;;;;;;;;5022671;28;45408;-79
2022/01/01 10:01:53;;;;;;;;;7.33;7.33;;;;;;;;5023021;28;45651;-79
2022/01/01 10:04:19;;;;;;;;;6.67;6.67;;;;;;;;5031968;28;45860;-79
2022/01/01 10:06:59;;;;;;;;;6.75;5.00;;;;;;;;5027959;28;46041;-79
2022/01/01 10:09:29;;;;;;;;;8.50;6.50;;;;;;;;5028311;28;45497;-78
2022/01/01 10:11:54;;;;;;;;;7.75;6.25;;;;;;;;5024375;28;47600;-77
2022/01/01 10:14:20;;;;;;;;;3.67;3.67;;;;;;;;5031300;28;45577;-78
2022/01/01 10:16:45;;;;;;;;;5.00;5.00;;;;;;;;5032479;28;45485;-77
2022/01/01 10:19:10;;;;;;;;;5.67;5.33;;;;;;;;5037116;28;45735;-77
2022/01/01 10:21:40;;;;;;;;;8.00;6.33;;;;;;;;5017251;28;45602;-78
2022/01/01 10:24:12;;;;;;;;;4.25;4.00;;;;;;;;5030767;28;45461;-78
2022/01/01 10:29:23;;;;;;;;;5.75;4.50;;;;;;;;5022449;28;45383;-77
2022/01/01 10:32:23;;;;;;;;;6.25;6.25;;;;;;;;5023044;28;48841;-79
2022/01/01 10:34:49;;;;;;;;;6.00;4.75;;;;;;;;4966225;28;45571;-78
2022/01/01 10:37:14;;;;;;;;;7.67;7.67;;;;;;;;4990692;28;45314;-78
2022/01/01 10:39:49;;;;;;;;;6.25;6.25;;;;;;;;4989428;28;45506;-78
2022/01/01 10:42:14;;;;;;;;;5.75;5.75;;;;;;;;4991710;28;45580;-79
2022/01/01 10:44:41;;;;;;;;;11.67;8.00;;;;;;;;4980765;28;46005;-78
2022/01/01 10:47:13;;;;;;;;;5.75;5.75;;;;;;;;4985523;28;45881;-78
2022/01/01 10:52:13;;;;;;;;;9.00;7.50;;;;;;;;4989323;28;45607;-78
2022/01/01 10:54:38;;;;;;;;;7.25;7.25;;;;;;;;4973341;28;46493;-78
2022/01/01 10:57:07;;;;;;;;;11.50;8.00;;;;;;;;4981117;28;45659;-78
2022/01/01 10:59:36;;;;;;;;;7.00;5.75;;;;;;;;4988057;28;47435;-78
2022/01/01 11:02:02;;;;;;;;;8.50;7.00;;;;;;;;4988545;28;45664;-78
2022/01/01 11:04:27;;;;;;;;;7.33;6.00;;;;;;;;4991798;28;45539;-78
2022/01/01 11:06:55;;;;;;;;;8.25;8.25;;;;;;;;4981504;28;45511;-78
2022/01/01 11:09:20;;;;;;;;;7.75;6.75;;;;;;;;5012975;28;47322;-78
2022/01/01 11:11:46;;;;;;;;;6.50;6.50;;;;;;;;5034152;28;45359;-78
2022/01/01 11:14:11;;;;;;;;;8.00;6.00;;;;;;;;5027431;28;45446;-79
2022/01/01 11:16:38;;;;;;;;;6.00;4.75;;;;;;;;5020029;28;45604;-78
2022/01/01 11:19:03;;;;;;;;;7.00;5.75;;;;;;;;5029082;28;48746;-78
2022/01/01 11:21:29;;;;;;;;;6.00;6.00;;;;;;;;5032095;28;45399;-79
2022/01/01 11:23:54;;;;;;;;;7.25;6.75;;;;;;;;5030201;28;45489;-78
2022/01/01 11:26:20;;;;;;;;;7.00;7.00;;;;;;;;5029517;28;45603;-78
2022/01/01 11:28:45;;;;;;;;;7.00;7.00;;;;;;;;5023977;28;45513;-78
2022/01/01 11:31:14;;;;;;;;;6.00;6.00;;;;;;;;5031600;28;45542;-78
2022/01/01 11:33:41;;;;;;;;;7.25;6.00;;;;;;;;5028478;28;45368;-79
2022/01/01 11:36:07;;;;;;;;;8.50;5.25;;;;;;;;5033723;28;45454;-79
2022/01/01 11:38:37;;;;;;;;;8.75;8.00;;;;;;;;5024985;28;46189;-78
2022/01/01 11:41:03;;;;;;;;;9.75;6.25;;;;;;;;5025569;28;45811;-79
2022/01/01 11:43:51;;;;;;;;;5.25;5.00;;;;;;;;5016730;28;45646;-78
2022/01/01 11:46:18;;;;;;;;;6.50;6.00;;;;;;;;5028614;28;48844;-79
2022/01/01 11:48:45;;;;;;;;;7.00;7.00;;;;;;;;5027696;28;48344;-79
2022/01/01 11:51:21;;;;;;;;;5.50;5.50;;;;;;;;5026916;28;45763;-78
2022/01/01 11:54:05;;;;;;;;;4.50;4.50;;;;;;;;5023165;28;45788;-78
2022/01/01 11:57:05;;;;;;;;;6.75;6.75;;;;;;;;5028113;28;45617;-78
2022/01/01 11:59:30;;;;;;;;;5.25;5.25;;;;;;;;4989377;28;46665;-78
2022/01/01 12:01:59;;;;;;;;;6.33;6.33;;;;;;;;4986912;28;45474;-79
2022/01/01 12:04:38;;;;;;;;;6.25;5.25;;;;;;;;4971551;28;46094;-79
2022/01/01 12:07:11;;;;;;;;;7.00;5.50;;;;;;;;4980538;28;47124;-79
2022/01/01 12:09:49;;;;;;;;;6.00;6.00;;;;;;;;4981521;28;45583;-80
2022/01/01 12:12:17;;;;;;;;;8.00;4.25;;;;;;;;4988725;28;45513;-79
2022/01/01 12:14:42;;;;;;;;;6.75;5.75;;;;;;;;4987823;28;51003;-79
2022/01/01 12:17:08;;;;;;;;;7.67;5.67;;;;;;;;4988490;28;45570;-79
2022/01/01 12:19:36;;;;;;;;;5.75;5.75;;;;;;;;4988403;28;48678;-80
2022/01/01 12:22:07;;;;;;;;;5.75;5.75;;;;;;;;4971254;28;45509;-80
2022/01/01 12:24:37;;;;;;;;;3.75;3.50;;;;;;;;4988972;28;45442;-80
2022/01/01 12:27:08;;;;;;;;;3.75;3.75;;;;;;;;4988359;28;45572;-79
2022/01/01 12:29:34;;;;;;;;;4.25;4.25;;;;;;;;4991739;28;46109;-79
2022/01/01 12:31:59;;;;;;;;;4.75;4.75;;;;;;;;4990098;28;45572;-79
2022/01/01 12:34:25;;;;;;;;;5.00;5.00;;;;;;;;4995789;28;45513;-79
2022/01/01 12:36:54;;;;;;;;;3.00;3.00;;;;;;;;5026763;28;45700;-80
2022/01/01 12:39:19;;;;;;;;;4.75;3.75;;;;;;;;5027083;28;45417;-79
2022/01/01 12:41:45;;;;;;;;;5.25;4.25;;;;;;;;5024683;28;45525;-80
2022/01/01 12:44:13;;;;;;;;;4.00;4.00;;;;;;;;5022685;28;45546;-79
2022/01/01 12:46:44;;;;;;;;;5.50;4.00;;;;;;;;5026852;28;46134;-79
2022/01/01 12:49:09;;;;;;;;;7.00;5.00;;;;;;;;5026471;28;46295;-79
2022/01/01 12:51:37;;;;;;;;;4.00;4.00;;;;;;;;5026654;28;45596;-80
2022/01/01 12:54:09;;;;;;;;;5.50;4.00;;;;;;;;5030811;28;45403;-79
2022/01/01 12:56:35;;;;;;;;;5.00;5.00;;;;;;;;5024347;28;45521;-80
2022/01/01 12:59:07;;;;;;;;;5.00;4.75;;;;;;;;5026918;28;46655;-78
2022/01/01 13:01:34;;;;;;;;;5.50;5.50;;;;;;;;5025096;28;45900;-78
2022/01/01 13:04:10;;;;;;;;;4.75;4.75;;;;;;;;5025817;28;45352;-78
2022/01/01 13:06:39;;;;;;;;;6.75;5.50;;;;;;;;5022737;28;45458;-79
2022/01/01 13:09:05;;;;;;;;;4.00;4.00;;;;;;;;5024971;28;47584;-79
2022/01/01 13:11:31;;;;;;;;;6.00;4.00;;;;;;;;5018048;28;46079;-79
2022/01/01 13:13:57;;;;;;;;;5.75;5.75;;;;;;;;5019560;28;45684;-79
2022/01/01 13:16:22;;;;;;;;;7.00;5.25;;;;;;;;5026918;28;45516;-78
2022/01/01 13:18:48;;;;;;;;;7.00;5.75;;;;;;;;5027730;28;45425;-78
2022/01/01 13:21:13;;;;;;;;;5.75;4.00;;;;;;;;5030602;28;45784;-71
2022/01/01 13:23:39;;;;;;;;;6.00;4.25;;;;;;;;5021447;28;46043;-72
2022/01/01 13:26:04;;;;;;;;;4.00;3.25;;;;;;;;5023345;28;45688;-71
2022/01/01 13:28:31;;;;;;;;;6.25;4.00;;;;;;;;5027312;28;46036;-71
2022/01/01 13:30:57;;;;;;;;;4.25;4.25;;;;;;;;5027372;28;45724;-71
2022/01/01 13:33:24;;;;;;;;;5.00;5.00;;;;;;;;5029688;28;45631;-70
2022/01/01 13:35:50;;;;;;;;;5.25;5.25;;;;;;;;5024767;28;45560;-71
2022/01/01 13:38:16;;;;;;;;;6.25;5.00;;;;;;;;5023202;28;45495;-71
2022/01/01 13:40:45;;;;;;;;;4.00;4.00;;;;;;;;5028046;28;45541;-71
2022/01/01 13:43:10;;;;;;;;;7.00;5.00;;;;;;;;5033022;28;45441;-73
2022/01/01 13:45:35;;;;;;;;;4.75;4.25;;;;;;;;5025318;28;45538;-72
2022/01/01 13:48:07;;;;;;;;;7.00;5.75;;;;;;;;5031132;28;45426;-71
2022/01/01 13:50:47;;;;;;;;;5.00;5.00;;;;;;;;5027773;28;45505;-72
2022/01/01 13:53:13;;;;;;;;;4.50;4.50;;;;;;;;5027598;28;48463;-72
2022/01/01 13:55:50;;;;;;;;;5.00;5.00;;;;;;;;5030702;28;45518;-72
2022/01/01 13:58:15;;;;;;;;;6.50;5.75;;;;;;;;5029022;28;46054;-72
2022/01/01 14:00:49;;;;;;;;;6.25;5.25;;;;;;;;5032035;28;45454;-71
2022/01/01 14:03:14;;;;;;;;;6.50;6.50;;;;;;;;5034564;28;45624;-72
2022/01/01 14:05:39;;;;;;;;;5.75;4.75;;;;;;;;5029673;28;45582;-79
2022/01/01 14:08:16;;;;;;;;;6.00;6.00;;;;;;;;5028546;28;45575;-80
2022/01/01 14:10:42;;;;;;;;;6.00;5.50;;;;;;;;5028476;28;45859;-83
2022/01/01 14:13:07;;;;;;;;;4.50;4.50;;;;;;;;5024080;28;45486;-80
2022/01/01 14:15:34;;;;;;;;;5.67;5.00;;;;;;;;5027139;28;46206;-84
2022/01/01 14:18:09;;;;;;;;;5.50;5.50;;;;;;;;5039736;28;47071;-81
2022/01/01 14:20:52;;;;;;;;;6.50;4.00;;;;;;;;5028661;28;45720;-79
2022/01/01 14:23:24;;;;;;;;;7.00;5.75;;;;;;;;5026213;28;45723;-80
2022/01/01 14:26:00;;;;;;;;;5.00;5.00;;;;;;;;5028468;28;45585;-79
2022/01/01 14:28:25;;;;;;;;;6.00;4.50;;;;;;;;5026756;28;47209;-81
2022/01/01 14:30:52;;;;;;;;;6.25;5.00;;;;;;;;5029698;28;45403;-79
2022/01/01 14:33:18;;;;;;;;;5.75;5.75;;;;;;;;5032455;28;45637;-80